Meteo Giornale » Osservazioni meteo Slovacchia » Piestany

ore: 23:00 - Osservazioni Meteo Piestany
Lat. 48° 37' N Lon. 17° 49' E Alt. 163 metri s.l.m.

sereno Europe/Bratislava

11 °C

Sereno

Temp. 24 Ore

11 °C

24 °C

Nord

9.3 Km/h

Dew point 10 °C

Umidità 93 %

Visibilità  10 Km

Il sole sorge alle ore 06:38

Il sole tramonta alle ore 18:42

Data e Ora Cielo e Fenomeni T °C DP °C Um. % Pres. hPa Vis. km Vento km/h
Oggi h: 23:00 sereno Sereno 11 10 93 1019 10 N 9.3
Oggi h: 22:30 sereno Sereno 11 10 93 1019 10 N 9.3
Oggi h: 22:00 sereno Sereno 13 12 93 1019 10 N/NE 7.4
Oggi h: 21:30 sereno Sereno 14 12 87 1019 10 N 7.4
Oggi h: 21:00 sereno Sereno 15 12 82 1019 10 N 11.1
Oggi h: 20:30 sereno Sereno 14 11 82 1019 10 N 5.5
Oggi h: 20:00 sereno Sereno 17 13 77 1018 10 E 7.4
Oggi h: 19:30 sereno Sereno 18 13 72 1018 10 E 7.4
Oggi h: 19:00 sereno Sereno 19 13 68 1018 10 N 3.7
Oggi h: 18:30 sereno Sereno 22 12 53 1018 10 S/SO 7.4
Oggi h: 18:00 sereno Sereno 23 12 49 1018 10 S 9.3
Oggi h: 17:30 sereno Sereno 23 12 49 1018 10 S 11.1
Oggi h: 17:00 sereno Sereno 24 12 47 1018 10 S 11.1
Oggi h: 16:30 sereno Sereno 24 12 47 1018 10 S 7.4
Oggi h: 16:00 sereno Sereno 24 13 50 1018 10 S/SO 11.1
Oggi h: 15:30 sereno Sereno 24 13 50 1018 10 S 11.1
Oggi h: 15:00 sereno Sereno 24 12 47 1018 10 S 9.3
Oggi h: 14:30 sereno Sereno 24 13 50 1019 10 S/SO 11.1
Oggi h: 14:00 poco_nuvoloso Poco Nuvoloso 23 12 49 1019 10 S 11.1
Oggi h: 13:30 poco_nuvoloso Poco Nuvoloso 23 13 53 1019 10 N 5.5
Oggi h: 13:00 poco_nuvoloso Poco Nuvoloso 22 13 56 1019 10 S 9.3
Oggi h: 12:30 poco_nuvoloso Poco Nuvoloso 22 13 56 1019 10 S 7.4
Oggi h: 12:00 poco_nuvoloso Poco Nuvoloso 21 13 60 1019 10 N 5.5
Oggi h: 11:30 poco_nuvoloso Poco Nuvoloso 21 13 60 1020 10 SO 7.4
Oggi h: 10:30 sereno Sereno 19 13 68 1020 10 N 5.5
Oggi h: 10:00 sereno Sereno 18 13 72 1019 10 N 5.5
Oggi h: 09:30 sereno Sereno 17 14 82 1019 10 N 1.8
Oggi h: 09:00 sereno Sereno 16 13 82 1019 10 N 1.8
Oggi h: 08:00 sereno Sereno 13 11 87 1019 10 N 3.7
Oggi h: 07:30 sereno Sereno 12 11 93 1019 10 N 5.5
Oggi h: 07:00 sereno Sereno 12 11 93 1019 10 N 5.5
Oggi h: 06:00 sereno Sereno 13 12 93 1018 10 N 1.8
Oggi h: 05:30 sereno Sereno 13 12 93 1018 10 N 1.8
Oggi h: 04:30 sereno Sereno 14 12 87 1018 10 N 1.8
Oggi h: 04:00 poco_nuvoloso Poco Nuvoloso 14 12 87 1018 10 N 3.7
Oggi h: 03:30 sereno Sereno 14 12 87 1018 10 N 5.5
Oggi h: 03:00 coperto Coperto 14 12 87 1018 10 SE 7.4
Oggi h: 02:00 coperto Coperto 14 12 87 1018 10 N 3.7
Oggi h: 01:30 coperto Coperto 12 10 87 1018 10 N 5.5
Oggi h: 01:00 sereno Sereno 13 11 87 1018 10 N 5.5
Oggi h: 00:30 sereno Sereno 13 11 87 1018 10 N 3.7
Oggi h: 00:00 sereno Sereno 15 11 76 1018 10 N 1.8